Time,TemperatureF,DewpointF,PressureIn,WindDirection,WindDirectionDegrees,WindSpeedMPH,WindSpeedGustMPH,Humidity,HourlyPrecipIn,Conditions,Clouds,dailyrainin,SolarRadiationWatts/m^2,SoftwareType,DateUTC
2013-05-04 00:04:00,41.1,40.0,30.00,North,356,0.0,0.0,96,0.00,,,0.08,0,Wunderground v.1.15,2013-05-04 05:04:00,
2013-05-04 00:09:00,40.9,39.8,30.00,North,356,0.0,0.0,96,0.00,,,0.08,0,Wunderground v.1.15,2013-05-04 05:09:00,
2013-05-04 00:15:00,40.7,39.6,30.00,North,356,0.0,0.0,96,0.00,,,0.08,0,Wunderground v.1.15,2013-05-04 05:15:00,
2013-05-04 00:20:00,40.7,39.6,30.00,North,356,0.0,0.0,96,0.00,,,0.08,0,Wunderground v.1.15,2013-05-04 05:20:00,
2013-05-04 00:25:00,40.6,39.5,30.00,North,356,0.0,0.0,96,0.00,,,0.08,0,Wunderground v.1.15,2013-05-04 05:25:00,
2013-05-04 00:30:00,40.6,39.5,30.00,North,356,0.0,0.0,96,0.00,,,0.08,0,Wunderground v.1.15,2013-05-04 05:30:00,
2013-05-04 00:36:00,40.6,39.8,30.00,North,356,0.0,0.0,97,0.00,,,0.08,0,Wunderground v.1.15,2013-05-04 05:36:00,
2013-05-04 00:41:00,40.5,39.7,30.00,North,356,0.0,0.0,97,0.00,,,0.08,0,Wunderground v.1.15,2013-05-04 05:41:00,
2013-05-04 00:46:00,40.5,39.7,30.00,North,356,0.0,0.0,97,0.00,,,0.08,0,Wunderground v.1.15,2013-05-04 05:46:00,
2013-05-04 00:51:00,40.4,39.6,30.00,North,356,0.0,0.0,97,0.00,,,0.08,0,Wunderground v.1.15,2013-05-04 05:51:00,
2013-05-04 00:56:00,40.3,39.3,30.00,North,356,0.0,0.0,96,0.00,,,0.08,0,Wunderground v.1.15,2013-05-04 05:56:00,
2013-05-04 01:02:00,40.1,39.1,30.00,North,356,0.0,0.0,96,0.00,,,0.08,0,Wunderground v.1.15,2013-05-04 06:02:00,
2013-05-04 01:07:00,40.0,39.2,29.99,North,356,0.0,0.0,97,0.00,,,0.08,0,Wunderground v.1.15,2013-05-04 06:07:00,
2013-05-04 01:12:00,40.0,39.2,29.99,North,356,0.0,0.0,97,0.00,,,0.08,0,Wunderground v.1.15,2013-05-04 06:12:00,
2013-05-04 01:18:00,39.9,39.1,29.99,North,356,0.0,0.0,97,0.00,,,0.08,0,Wunderground v.1.15,2013-05-04 06:18:00,
2013-05-04 01:23:00,39.8,39.0,29.99,North,356,0.0,0.0,97,0.00,,,0.08,0,Wunderground v.1.15,2013-05-04 06:23:00,
2013-05-04 01:28:00,39.7,38.7,29.99,North,356,0.0,0.0,96,0.00,,,0.08,0,Wunderground v.1.15,2013-05-04 06:28:00,
2013-05-04 01:33:00,39.5,38.5,29.99,North,356,0.0,0.0,96,0.00,,,0.08,0,Wunderground v.1.15,2013-05-04 06:33:00,
2013-05-04 01:38:00,39.4,38.6,29.98,North,356,0.0,0.0,97,0.00,,,0.08,0,Wunderground v.1.15,2013-05-04 06:38:00,
2013-05-04 01:44:00,39.3,38.5,29.98,North,356,0.0,0.0,97,0.00,,,0.08,0,Wunderground v.1.15,2013-05-04 06:44:00,
2013-05-04 01:49:00,39.3,38.5,29.98,North,356,0.0,0.0,97,0.00,,,0.08,0,Wunderground v.1.15,2013-05-04 06:49:00,
2013-05-04 01:54:00,39.3,38.5,29.98,North,356,0.0,0.0,97,0.00,,,0.08,0,Wunderground v.1.15,2013-05-04 06:54:00,
2013-05-04 02:00:00,39.4,38.6,29.98,North,356,0.0,0.0,97,0.00,,,0.08,0,Wunderground v.1.15,2013-05-04 07:00:00,
2013-05-04 02:05:00,39.4,38.6,29.98,North,356,0.0,0.0,97,0.00,,,0.08,0,Wunderground v.1.15,2013-05-04 07:05:00,
2013-05-04 02:10:00,39.4,38.6,29.97,North,356,0.0,0.0,97,0.00,,,0.08,0,Wunderground v.1.15,2013-05-04 07:10:00,
2013-05-04 02:15:00,39.3,38.5,29.97,North,356,0.0,0.0,97,0.00,,,0.08,0,Wunderground v.1.15,2013-05-04 07:15:00,
2013-05-04 02:20:00,39.2,38.4,29.97,North,356,0.0,0.0,97,0.00,,,0.08,0,Wunderground v.1.15,2013-05-04 07:20:00,
2013-05-04 02:26:00,39.1,38.3,29.97,North,356,0.0,0.0,97,0.00,,,0.08,0,Wunderground v.1.15,2013-05-04 07:26:00,
2013-05-04 02:31:00,39.0,38.2,29.97,North,356,0.0,0.0,97,0.00,,,0.08,0,Wunderground v.1.15,2013-05-04 07:31:00,
2013-05-04 02:36:00,38.9,38.1,29.97,North,356,0.0,0.0,97,0.00,,,0.08,0,Wunderground v.1.15,2013-05-04 07:36:00,
2013-05-04 02:41:00,38.8,38.0,29.96,North,356,0.0,0.0,97,0.00,,,0.08,0,Wunderground v.1.15,2013-05-04 07:41:00,
2013-05-04 02:47:00,38.7,37.9,29.96,North,356,0.0,0.0,97,0.00,,,0.08,0,Wunderground v.1.15,2013-05-04 07:47:00,
2013-05-04 02:52:00,38.6,37.8,29.96,North,356,0.0,0.0,97,0.00,,,0.08,0,Wunderground v.1.15,2013-05-04 07:52:00,
2013-05-04 02:58:00,38.5,37.7,29.96,North,356,0.0,0.0,97,0.00,,,0.08,0,Wunderground v.1.15,2013-05-04 07:58:00,
2013-05-04 03:04:00,38.4,37.6,29.96,North,356,0.0,0.0,97,0.00,,,0.08,0,Wunderground v.1.15,2013-05-04 08:04:00,
2013-05-04 03:09:00,38.4,37.6,29.96,North,356,0.0,0.0,97,0.00,,,0.08,0,Wunderground v.1.15,2013-05-04 08:09:00,
2013-05-04 03:15:00,38.4,37.6,29.96,North,356,0.0,0.0,97,0.00,,,0.08,0,Wunderground v.1.15,2013-05-04 08:15:00,
2013-05-04 03:20:00,38.3,37.5,29.95,North,356,0.0,0.0,97,0.00,,,0.08,0,Wunderground v.1.15,2013-05-04 08:20:00,
2013-05-04 03:25:00,38.2,37.4,29.95,North,356,0.0,0.0,97,0.00,,,0.08,0,Wunderground v.1.15,2013-05-04 08:25:00,
2013-05-04 03:30:00,38.0,37.2,29.95,North,356,0.0,0.0,97,0.00,,,0.08,0,Wunderground v.1.15,2013-05-04 08:30:00,
2013-05-04 03:36:00,37.9,37.1,29.95,North,356,0.0,0.0,97,0.00,,,0.08,0,Wunderground v.1.15,2013-05-04 08:36:00,
2013-05-04 03:41:00,37.8,37.0,29.95,North,356,0.0,0.0,97,0.00,,,0.08,0,Wunderground v.1.15,2013-05-04 08:41:00,
2013-05-04 03:46:00,37.7,36.9,29.95,North,356,0.0,0.0,97,0.00,,,0.08,0,Wunderground v.1.15,2013-05-04 08:46:00,
2013-05-04 03:51:00,37.6,36.8,29.95,North,356,0.0,0.0,97,0.00,,,0.08,0,Wunderground v.1.15,2013-05-04 08:51:00,
2013-05-04 03:56:00,37.6,36.8,29.95,North,356,0.0,0.0,97,0.00,,,0.08,0,Wunderground v.1.15,2013-05-04 08:56:00,
2013-05-04 04:02:00,37.6,36.8,29.96,North,356,0.0,0.0,97,0.00,,,0.08,0,Wunderground v.1.15,2013-05-04 09:02:00,
2013-05-04 04:07:00,37.6,36.8,29.96,North,356,0.0,0.0,97,0.00,,,0.08,0,Wunderground v.1.15,2013-05-04 09:07:00,
2013-05-04 04:12:00,37.5,36.7,29.96,North,356,0.0,0.0,97,0.00,,,0.08,0,Wunderground v.1.15,2013-05-04 09:12:00,
2013-05-04 04:18:00,37.3,36.5,29.95,North,356,0.0,0.0,97,0.00,,,0.08,0,Wunderground v.1.15,2013-05-04 09:18:00,
2013-05-04 04:23:00,37.1,36.3,29.95,North,356,0.0,0.0,97,0.00,,,0.08,0,Wunderground v.1.15,2013-05-04 09:23:00,
2013-05-04 04:29:00,37.1,36.3,29.95,North,356,0.0,0.0,97,0.00,,,0.08,0,Wunderground v.1.15,2013-05-04 09:29:00,
2013-05-04 04:34:00,37.1,36.3,29.96,North,356,0.0,0.0,97,0.00,,,0.08,0,Wunderground v.1.15,2013-05-04 09:34:00,
2013-05-04 04:39:00,37.2,36.4,29.96,North,356,0.0,0.0,97,0.00,,,0.08,0,Wunderground v.1.15,2013-05-04 09:39:00,
2013-05-04 04:44:00,37.2,36.4,29.96,North,356,0.0,0.0,97,0.00,,,0.08,0,Wunderground v.1.15,2013-05-04 09:44:00,
2013-05-04 04:50:00,37.3,36.5,29.96,North,356,0.0,0.0,97,0.00,,,0.08,0,Wunderground v.1.15,2013-05-04 09:50:00,
2013-05-04 04:55:00,37.3,36.5,29.96,North,356,0.0,0.0,97,0.00,,,0.08,0,Wunderground v.1.15,2013-05-04 09:55:00,
2013-05-04 05:00:00,37.4,36.6,29.96,North,356,0.0,0.0,97,0.00,,,0.08,0,Wunderground v.1.15,2013-05-04 10:00:00,
2013-05-04 05:05:00,37.5,36.7,29.96,North,356,0.0,0.0,97,0.00,,,0.08,0,Wunderground v.1.15,2013-05-04 10:05:00,
2013-05-04 05:11:00,37.4,36.6,29.96,North,356,0.0,0.0,97,0.00,,,0.08,0,Wunderground v.1.15,2013-05-04 10:11:00,
2013-05-04 05:16:00,37.3,36.5,29.96,North,356,0.0,0.0,97,0.00,,,0.08,0,Wunderground v.1.15,2013-05-04 10:16:00,
2013-05-04 05:22:00,37.2,36.4,29.97,North,356,0.0,0.0,97,0.00,,,0.08,0,Wunderground v.1.15,2013-05-04 10:22:00,
2013-05-04 05:27:00,37.1,36.3,29.97,North,356,0.0,0.0,97,0.00,,,0.08,0,Wunderground v.1.15,2013-05-04 10:27:00,
2013-05-04 05:32:00,37.0,36.2,29.97,North,356,0.0,0.0,97,0.00,,,0.08,0,Wunderground v.1.15,2013-05-04 10:32:00,
2013-05-04 05:37:00,37.0,36.2,29.97,North,356,0.0,0.0,97,0.00,,,0.08,0,Wunderground v.1.15,2013-05-04 10:37:00,
2013-05-04 05:42:00,37.0,36.2,29.97,North,356,0.0,0.0,97,0.00,,,0.08,0,Wunderground v.1.15,2013-05-04 10:42:00,
2013-05-04 05:48:00,37.0,36.2,29.97,North,356,0.0,0.0,97,0.00,,,0.08,0,Wunderground v.1.15,2013-05-04 10:48:00,
2013-05-04 05:53:00,37.1,36.6,29.97,North,356,0.0,0.0,98,0.00,,,0.08,0,Wunderground v.1.15,2013-05-04 10:53:00,
2013-05-04 05:58:00,37.1,36.6,29.98,North,356,0.0,0.0,98,0.00,,,0.08,0,Wunderground v.1.15,2013-05-04 10:58:00,
2013-05-04 06:03:00,37.1,36.3,29.98,North,356,0.0,0.0,97,0.00,,,0.08,0,Wunderground v.1.15,2013-05-04 11:03:00,
2013-05-04 06:09:00,37.2,36.7,29.98,North,356,0.0,0.0,98,0.00,,,0.08,0,Wunderground v.1.15,2013-05-04 11:09:00,
2013-05-04 06:14:00,37.3,36.8,29.98,North,356,0.0,0.0,98,0.00,,,0.08,0,Wunderground v.1.15,2013-05-04 11:14:00,
2013-05-04 06:19:00,37.3,36.8,29.98,North,356,0.0,0.0,98,0.00,,,0.08,5,Wunderground v.1.15,2013-05-04 11:19:00,
2013-05-04 06:25:00,37.4,36.9,29.98,North,356,0.0,0.0,98,0.00,,,0.08,11,Wunderground v.1.15,2013-05-04 11:25:00,
2013-05-04 06:30:00,37.4,36.9,29.98,North,356,0.0,0.0,98,0.00,,,0.08,14,Wunderground v.1.15,2013-05-04 11:30:00,
2013-05-04 06:36:00,37.4,36.9,29.99,North,356,0.0,0.0,98,0.00,,,0.08,19,Wunderground v.1.15,2013-05-04 11:36:00,
2013-05-04 06:41:00,37.4,36.9,29.99,North,356,0.0,0.0,98,0.00,,,0.08,25,Wunderground v.1.15,2013-05-04 11:41:00,
2013-05-04 06:46:00,37.5,37.0,29.99,North,356,0.0,0.0,98,0.00,,,0.08,28,Wunderground v.1.15,2013-05-04 11:46:00,
2013-05-04 06:52:00,37.6,37.1,29.99,North,356,0.0,0.0,98,0.00,,,0.08,35,Wunderground v.1.15,2013-05-04 11:52:00,
2013-05-04 06:57:00,37.7,37.2,29.99,North,356,0.0,0.0,98,0.00,,,0.08,44,Wunderground v.1.15,2013-05-04 11:57:00,
2013-05-04 07:03:00,37.9,37.4,30.00,North,356,0.0,0.0,98,0.00,,,0.08,44,Wunderground v.1.15,2013-05-04 12:03:00,
2013-05-04 07:09:00,38.2,37.7,30.00,North,356,0.0,0.0,98,0.00,,,0.08,40,Wunderground v.1.15,2013-05-04 12:09:00,
2013-05-04 07:15:00,38.5,38.0,30.00,North,356,0.0,0.0,98,0.00,,,0.08,51,Wunderground v.1.15,2013-05-04 12:15:00,
2013-05-04 07:21:00,38.9,38.4,30.00,North,356,0.0,0.0,98,0.00,,,0.08,102,Wunderground v.1.15,2013-05-04 12:21:00,
2013-05-04 07:29:00,39.3,38.8,30.00,North,356,0.0,0.0,98,0.00,,,0.08,169,Wunderground v.1.15,2013-05-04 12:29:00,
2013-05-04 07:34:00,39.7,39.2,30.00,North,356,0.0,0.0,98,0.00,,,0.08,186,Wunderground v.1.15,2013-05-04 12:34:00,
2013-05-04 07:39:00,40.1,39.6,30.00,WNW,287,0.0,0.0,98,0.00,,,0.08,207,Wunderground v.1.15,2013-05-04 12:39:00,
2013-05-04 07:45:00,40.5,40.0,30.00,WNW,287,0.0,0.0,98,0.00,,,0.08,223,Wunderground v.1.15,2013-05-04 12:45:00,
2013-05-04 07:50:00,40.8,40.3,30.00,WNW,284,0.0,0.0,98,0.00,,,0.08,241,Wunderground v.1.15,2013-05-04 12:50:00,
2013-05-04 07:55:00,41.1,40.6,30.00,WNW,284,0.0,0.0,98,0.00,,,0.08,258,Wunderground v.1.15,2013-05-04 12:55:00,
2013-05-04 08:00:00,41.6,41.1,30.00,WNW,284,0.0,0.0,98,0.00,,,0.08,276,Wunderground v.1.15,2013-05-04 13:00:00,
2013-05-04 08:04:00,41.9,41.4,30.00,WNW,284,0.0,0.0,98,0.00,,,0.08,288,Wunderground v.1.15,2013-05-04 13:04:00,
2013-05-04 08:09:00,42.5,42.0,30.00,WNW,284,0.0,0.0,98,0.00,,,0.09,309,Wunderground v.1.15,2013-05-04 13:09:00,
2013-05-04 08:15:00,43.0,42.5,30.00,SSE,156,0.0,0.0,98,0.00,,,0.09,327,Wunderground v.1.15,2013-05-04 13:15:00,
2013-05-04 08:20:00,43.2,42.7,30.00,SSE,156,0.0,0.0,98,0.00,,,0.09,348,Wunderground v.1.15,2013-05-04 13:20:00,
2013-05-04 08:25:00,43.5,43.0,30.00,SSE,158,0.0,0.0,98,0.00,,,0.09,374,Wunderground v.1.15,2013-05-04 13:25:00,
2013-05-04 08:30:00,43.8,43.3,30.00,SSE,164,0.0,0.0,98,0.00,,,0.09,396,Wunderground v.1.15,2013-05-04 13:30:00,
2013-05-04 08:35:00,44.3,43.8,30.00,SSE,164,0.0,0.0,98,0.00,,,0.09,417,Wunderground v.1.15,2013-05-04 13:35:00,
2013-05-04 08:40:00,44.7,44.2,30.00,SW,220,0.0,0.0,98,0.00,,,0.09,436,Wunderground v.1.15,2013-05-04 13:40:00,
2013-05-04 08:46:00,45.0,44.2,30.00,SW,221,0.0,0.0,97,0.00,,,0.09,450,Wunderground v.1.15,2013-05-04 13:46:00,
2013-05-04 08:51:00,45.7,44.4,30.00,SW,221,0.0,0.0,95,0.00,,,0.09,468,Wunderground v.1.15,2013-05-04 13:51:00,
2013-05-04 08:56:00,46.2,44.3,30.00,SW,220,0.0,0.0,93,0.00,,,0.09,485,Wunderground v.1.15,2013-05-04 13:56:00,
2013-05-04 09:01:00,46.9,44.7,30.00,SW,219,0.0,0.0,92,0.00,,,0.09,501,Wunderground v.1.15,2013-05-04 14:01:00,
2013-05-04 09:06:00,47.7,44.9,30.00,SW,219,0.0,0.0,90,0.00,,,0.09,519,Wunderground v.1.15,2013-05-04 14:06:00,
2013-05-04 09:12:00,48.1,44.7,30.00,SW,219,0.0,0.0,88,0.00,,,0.09,536,Wunderground v.1.15,2013-05-04 14:12:00,
2013-05-04 09:17:00,48.7,44.7,30.00,SW,219,0.0,0.0,86,0.00,,,0.09,554,Wunderground v.1.15,2013-05-04 14:17:00,
2013-05-04 09:22:00,49.0,44.4,30.00,South,183,0.0,0.0,84,0.00,,,0.09,573,Wunderground v.1.15,2013-05-04 14:22:00,
2013-05-04 09:27:00,49.3,44.0,30.00,SW,227,0.0,0.0,82,0.00,,,0.09,591,Wunderground v.1.15,2013-05-04 14:27:00,
2013-05-04 09:33:00,49.7,44.4,30.00,SW,227,0.0,0.0,82,0.00,,,0.09,605,Wunderground v.1.15,2013-05-04 14:33:00,
2013-05-04 09:38:00,50.0,44.7,30.00,SW,225,0.0,0.0,82,0.00,,,0.09,624,Wunderground v.1.15,2013-05-04 14:38:00,
2013-05-04 09:43:00,50.3,45.3,30.00,SW,229,0.0,0.0,83,0.00,,,0.09,636,Wunderground v.1.15,2013-05-04 14:43:00,
2013-05-04 09:49:00,50.8,45.2,29.99,West,265,0.0,2.0,81,0.00,,,0.09,661,Wunderground v.1.15,2013-05-04 14:49:00,
2013-05-04 09:54:00,50.8,45.2,29.99,WSW,258,1.0,1.0,81,0.00,,,0.09,677,Wunderground v.1.15,2013-05-04 14:54:00,
2013-05-04 10:00:00,51.1,45.8,29.99,West,259,0.0,0.0,82,0.00,,,0.09,691,Wunderground v.1.15,2013-05-04 15:00:00,
2013-05-04 10:05:00,51.9,45.9,29.99,WSW,240,0.0,0.0,80,0.00,,,0.09,707,Wunderground v.1.15,2013-05-04 15:05:00,
2013-05-04 10:10:00,52.6,46.9,29.99,WSW,240,0.0,0.0,81,0.00,,,0.09,722,Wunderground v.1.15,2013-05-04 15:10:00,
2013-05-04 10:15:00,53.3,46.6,29.98,South,188,0.0,0.0,78,0.00,,,0.09,742,Wunderground v.1.15,2013-05-04 15:15:00,
2013-05-04 10:20:00,53.8,46.4,29.98,SSW,212,0.0,0.0,76,0.00,,,0.09,763,Wunderground v.1.15,2013-05-04 15:20:00,
2013-05-04 10:26:00,53.8,45.3,29.99,SW,235,0.0,6.0,73,0.00,,,0.09,782,Wunderground v.1.15,2013-05-04 15:26:00,
2013-05-04 10:31:00,53.9,45.4,29.99,WSW,245,0.0,0.0,73,0.00,,,0.09,795,Wunderground v.1.15,2013-05-04 15:31:00,
2013-05-04 10:36:00,54.5,45.3,29.98,SW,236,0.0,0.0,71,0.00,,,0.09,809,Wunderground v.1.15,2013-05-04 15:36:00,
2013-05-04 10:41:00,55.0,46.1,29.99,West,266,0.0,0.0,72,0.00,,,0.09,823,Wunderground v.1.15,2013-05-04 15:41:00,
2013-05-04 10:46:00,55.3,45.7,29.98,WNW,282,0.0,0.0,70,0.00,,,0.09,840,Wunderground v.1.15,2013-05-04 15:46:00,
2013-05-04 10:52:00,55.6,46.0,29.98,SW,217,0.0,0.0,70,0.00,,,0.09,853,Wunderground v.1.15,2013-05-04 15:52:00,
2013-05-04 10:57:00,55.9,46.3,29.98,WSW,256,0.0,0.0,70,0.00,,,0.09,865,Wunderground v.1.15,2013-05-04 15:57:00,
2013-05-04 11:02:00,56.5,45.7,29.98,SSW,209,0.0,0.0,67,0.00,,,0.09,877,Wunderground v.1.15,2013-05-04 16:02:00,
2013-05-04 11:07:00,56.9,45.7,29.98,SW,227,1.0,5.0,66,0.00,,,0.09,889,Wunderground v.1.15,2013-05-04 16:07:00,
2013-05-04 11:12:00,57.1,46.6,29.98,West,264,1.0,1.0,68,0.00,,,0.09,895,Wunderground v.1.15,2013-05-04 16:12:00,
2013-05-04 11:17:00,57.8,46.1,29.98,SSW,210,0.0,1.0,65,0.00,,,0.09,909,Wunderground v.1.15,2013-05-04 16:17:00,
2013-05-04 11:23:00,57.9,45.8,29.98,SW,227,1.0,4.0,64,0.00,,,0.09,916,Wunderground v.1.15,2013-05-04 16:23:00,
2013-05-04 11:28:00,58.1,46.4,29.98,SW,214,1.0,4.0,65,0.00,,,0.09,921,Wunderground v.1.15,2013-05-04 16:28:00,
2013-05-04 11:33:00,58.7,44.8,29.98,WNW,287,0.0,2.0,60,0.00,,,0.09,932,Wunderground v.1.15,2013-05-04 16:33:00,
2013-05-04 11:38:00,59.0,46.0,29.98,WNW,296,1.0,2.0,62,0.00,,,0.09,937,Wunderground v.1.15,2013-05-04 16:38:00,
2013-05-04 11:44:00,59.5,46.5,29.98,WSW,246,1.0,8.0,62,0.00,,,0.00,947,Wunderground v.1.15,2013-05-04 16:44:00,
2013-05-04 11:49:00,59.8,43.1,29.97,WNW,302,1.0,8.0,54,0.00,,,0.00,958,Wunderground v.1.15,2013-05-04 16:49:00,
2013-05-04 11:54:00,60.1,44.3,29.97,NW,316,1.0,1.0,56,0.00,,,0.00,960,Wunderground v.1.15,2013-05-04 16:54:00,
2013-05-04 11:59:00,60.7,43.9,29.97,West,265,0.0,0.0,54,0.00,,,0.00,969,Wunderground v.1.15,2013-05-04 16:59:00,
2013-05-04 12:05:00,60.8,43.6,29.97,WSW,248,1.0,4.0,53,0.00,,,0.00,972,Wunderground v.1.15,2013-05-04 17:05:00,
2013-05-04 12:10:00,60.6,44.3,29.97,WSW,258,2.0,2.0,55,0.00,,,0.00,976,Wunderground v.1.15,2013-05-04 17:10:00,
2013-05-04 12:16:00,60.6,44.8,29.97,WNW,298,3.0,6.0,56,0.00,,,0.00,972,Wunderground v.1.15,2013-05-04 17:16:00,
2013-05-04 12:21:00,61.1,45.3,29.97,West,273,2.0,2.0,56,0.00,,,0.00,986,Wunderground v.1.15,2013-05-04 17:21:00,
2013-05-04 12:27:00,61.5,44.2,29.96,SW,225,1.0,9.0,53,0.00,,,0.00,995,Wunderground v.1.15,2013-05-04 17:27:00,
2013-05-04 12:32:00,61.8,45.5,29.96,SW,232,1.0,1.0,55,0.00,,,0.00,1005,Wunderground v.1.15,2013-05-04 17:32:00,
2013-05-04 12:37:00,61.8,44.0,29.96,WNW,296,2.0,6.0,52,0.00,,,0.00,1004,Wunderground v.1.15,2013-05-04 17:37:00,
2013-05-04 12:42:00,61.9,44.1,29.95,West,271,2.0,5.0,52,0.00,,,0.00,1011,Wunderground v.1.15,2013-05-04 17:42:00,
2013-05-04 12:47:00,62.0,44.2,29.95,WSW,250,1.0,5.0,52,0.00,,,0.00,1004,Wunderground v.1.15,2013-05-04 17:47:00,
2013-05-04 12:52:00,62.2,43.8,29.95,West,260,2.0,7.0,51,0.00,,,0.00,1027,Wunderground v.1.15,2013-05-04 17:52:00,
2013-05-04 12:57:00,62.6,43.7,29.95,NNW,348,2.0,7.0,50,0.00,,,0.00,1035,Wunderground v.1.15,2013-05-04 17:57:00,
2013-05-04 13:03:00,62.7,44.8,29.95,SW,227,1.0,2.0,52,0.00,,,0.00,1013,Wunderground v.1.15,2013-05-04 18:03:00,
2013-05-04 13:08:00,63.1,45.2,29.94,WSW,253,0.0,7.0,52,0.00,,,0.00,1021,Wunderground v.1.15,2013-05-04 18:08:00,
2013-05-04 13:15:00,63.2,44.2,29.94,NW,306,2.0,11.0,50,0.00,,,0.00,1016,Wunderground v.1.15,2013-05-04 18:15:00,
2013-05-04 13:20:00,63.2,43.7,29.94,NW,304,2.0,2.0,49,0.00,,,0.00,1011,Wunderground v.1.15,2013-05-04 18:20:00,
2013-05-04 13:25:00,63.3,44.3,29.94,SSW,208,2.0,5.0,50,0.00,,,0.00,1035,Wunderground v.1.15,2013-05-04 18:25:00,
2013-05-04 13:31:00,63.8,42.0,29.94,WSW,242,2.0,11.0,45,0.00,,,0.00,1046,Wunderground v.1.15,2013-05-04 18:31:00,
2013-05-04 13:36:00,64.1,43.4,29.93,WSW,238,1.0,11.0,47,0.00,,,0.00,1067,Wunderground v.1.15,2013-05-04 18:36:00,
2013-05-04 13:41:00,64.3,44.7,29.93,South,177,1.0,2.0,49,0.00,,,0.00,991,Wunderground v.1.15,2013-05-04 18:41:00,
2013-05-04 13:46:00,64.9,43.0,29.93,WSW,248,1.0,12.0,45,0.00,,,0.00,997,Wunderground v.1.15,2013-05-04 18:46:00,
2013-05-04 13:52:00,64.5,40.9,29.93,West,270,4.0,8.0,42,0.00,,,0.00,995,Wunderground v.1.15,2013-05-04 18:52:00,
2013-05-04 13:58:00,64.7,42.9,29.92,WSW,246,2.0,8.0,45,0.00,,,0.00,981,Wunderground v.1.15,2013-05-04 18:58:00,
2013-05-04 14:03:00,64.7,43.4,29.92,WNW,303,0.0,1.0,46,0.00,,,0.00,1000,Wunderground v.1.15,2013-05-04 19:03:00,
2013-05-04 14:08:00,64.8,42.9,29.92,SW,223,1.0,1.0,45,0.00,,,0.00,984,Wunderground v.1.15,2013-05-04 19:08:00,
2013-05-04 14:13:00,64.8,40.5,29.92,WNW,294,4.0,8.0,41,0.00,,,0.00,958,Wunderground v.1.15,2013-05-04 19:13:00,
2013-05-04 14:19:00,64.6,40.4,29.91,NW,318,4.0,8.0,41,0.00,,,0.00,947,Wunderground v.1.15,2013-05-04 19:19:00,
2013-05-04 14:24:00,64.6,42.2,29.91,West,281,4.0,6.0,44,0.00,,,0.00,940,Wunderground v.1.15,2013-05-04 19:24:00,
2013-05-04 14:29:00,64.7,41.1,29.91,WNW,285,2.0,6.0,42,0.00,,,0.00,937,Wunderground v.1.15,2013-05-04 19:29:00,
2013-05-04 14:35:00,65.0,41.3,29.91,WNW,296,2.0,5.0,42,0.00,,,0.00,928,Wunderground v.1.15,2013-05-04 19:35:00,
2013-05-04 14:41:00,65.0,40.1,29.91,NW,319,2.0,7.0,40,0.00,,,0.00,914,Wunderground v.1.15,2013-05-04 19:41:00,
2013-05-04 14:46:00,65.1,39.5,29.90,SW,233,2.0,7.0,39,0.00,,,0.00,911,Wunderground v.1.15,2013-05-04 19:46:00,
2013-05-04 14:51:00,65.6,41.3,29.90,WSW,250,2.0,3.0,41,0.00,,,0.00,893,Wunderground v.1.15,2013-05-04 19:51:00,
2013-05-04 14:56:00,65.9,40.9,29.90,ESE,121,3.0,10.0,40,0.00,,,0.00,884,Wunderground v.1.15,2013-05-04 19:56:00,
2013-05-04 15:01:00,66.2,39.8,29.90,West,264,1.0,10.0,38,0.00,,,0.00,874,Wunderground v.1.15,2013-05-04 20:01:00,
2013-05-04 15:07:00,66.0,39.7,29.89,WNW,283,2.0,10.0,38,0.00,,,0.00,865,Wunderground v.1.15,2013-05-04 20:07:00,
2013-05-04 15:22:00,66.7,40.3,29.89,WSW,248,2.0,2.0,38,0.00,,,0.00,823,Wunderground v.1.15,2013-05-04 20:22:00,
2013-05-04 15:30:00,66.3,39.2,29.88,West,277,2.0,2.0,37,0.00,,,0.00,809,Wunderground v.1.15,2013-05-04 20:30:00,
2013-05-04 15:41:00,66.7,40.9,29.87,SW,229,2.0,6.0,39,0.00,,,0.00,779,Wunderground v.1.15,2013-05-04 20:41:00,
2013-05-04 15:47:00,66.6,40.2,29.87,SW,221,2.0,7.0,38,0.00,,,0.00,759,Wunderground v.1.15,2013-05-04 20:47:00,
2013-05-04 15:52:00,66.9,40.5,29.86,West,269,1.0,2.0,38,0.00,,,0.00,749,Wunderground v.1.15,2013-05-04 20:52:00,
2013-05-04 16:02:00,67.3,40.8,29.86,West,266,2.0,4.0,38,0.00,,,0.00,717,Wunderground v.1.15,2013-05-04 21:02:00,
2013-05-04 16:07:00,67.1,41.3,29.85,SW,236,2.0,4.0,39,0.00,,,0.00,701,Wunderground v.1.15,2013-05-04 21:07:00,
2013-05-04 16:12:00,67.4,41.6,29.85,SW,214,3.0,3.0,39,0.00,,,0.00,686,Wunderground v.1.15,2013-05-04 21:12:00,
2013-05-04 16:18:00,67.6,41.1,29.85,West,273,3.0,5.0,38,0.00,,,0.00,668,Wunderground v.1.15,2013-05-04 21:18:00,
2013-05-04 16:23:00,67.6,42.4,29.85,NW,321,3.0,5.0,40,0.00,,,0.00,650,Wunderground v.1.15,2013-05-04 21:23:00,
2013-05-04 16:28:00,67.7,43.1,29.85,SW,234,3.0,5.0,41,0.00,,,0.00,636,Wunderground v.1.15,2013-05-04 21:28:00,
2013-05-04 16:33:00,68.0,41.4,29.85,SW,227,2.0,10.0,38,0.00,,,0.00,621,Wunderground v.1.15,2013-05-04 21:33:00,
2013-05-04 16:38:00,67.9,42.0,29.85,SW,215,2.0,10.0,39,0.00,,,0.00,601,Wunderground v.1.15,2013-05-04 21:38:00,
2013-05-04 16:44:00,67.9,41.3,29.85,SW,221,3.0,4.0,38,0.00,,,0.00,582,Wunderground v.1.15,2013-05-04 21:44:00,
2013-05-04 16:49:00,67.9,40.7,29.85,West,265,2.0,7.0,37,0.00,,,0.00,568,Wunderground v.1.15,2013-05-04 21:49:00,
2013-05-04 16:54:00,68.1,42.2,29.85,SW,229,1.0,4.0,39,0.00,,,0.00,547,Wunderground v.1.15,2013-05-04 21:54:00,
2013-05-04 16:59:00,68.2,42.9,29.85,West,267,1.0,5.0,40,0.00,,,0.00,533,Wunderground v.1.15,2013-05-04 21:59:00,
2013-05-04 17:04:00,68.5,42.6,29.85,West,278,1.0,4.0,39,0.00,,,0.00,513,Wunderground v.1.15,2013-05-04 22:04:00,
2013-05-04 17:09:00,68.6,42.6,29.85,SW,218,1.0,2.0,39,0.00,,,0.00,492,Wunderground v.1.15,2013-05-04 22:09:00,
2013-05-04 17:15:00,68.4,41.1,29.85,WSW,246,1.0,3.0,37,0.00,,,0.00,475,Wunderground v.1.15,2013-05-04 22:15:00,
2013-05-04 17:20:00,68.1,41.5,29.85,West,260,2.0,12.0,38,0.00,,,0.00,455,Wunderground v.1.15,2013-05-04 22:20:00,
2013-05-04 17:25:00,68.0,41.4,29.85,WSW,256,3.0,12.0,38,0.00,,,0.00,438,Wunderground v.1.15,2013-05-04 22:25:00,
2013-05-04 17:30:00,68.2,40.9,29.85,WNW,289,2.0,9.0,37,0.00,,,0.00,415,Wunderground v.1.15,2013-05-04 22:30:00,
2013-05-04 17:36:00,67.9,42.0,29.85,WNW,287,2.0,9.0,39,0.00,,,0.00,394,Wunderground v.1.15,2013-05-04 22:36:00,
2013-05-04 17:41:00,68.1,42.9,29.85,SW,235,2.0,2.0,40,0.00,,,0.00,376,Wunderground v.1.15,2013-05-04 22:41:00,
2013-05-04 17:47:00,68.2,42.3,29.85,SSE,161,0.0,2.0,39,0.00,,,0.00,352,Wunderground v.1.15,2013-05-04 22:47:00,
2013-05-04 17:53:00,68.1,43.5,29.85,SW,230,0.0,7.0,41,0.00,,,0.00,330,Wunderground v.1.15,2013-05-04 22:53:00,
2013-05-04 17:58:00,67.9,41.3,29.85,WSW,258,1.0,10.0,38,0.00,,,0.00,313,Wunderground v.1.15,2013-05-04 22:58:00,
2013-05-04 18:04:00,67.9,42.7,29.85,SW,220,1.0,4.0,40,0.00,,,0.00,287,Wunderground v.1.15,2013-05-04 23:04:00,
2013-05-04 18:09:00,67.9,42.0,29.85,SW,221,1.0,1.0,39,0.00,,,0.00,265,Wunderground v.1.15,2013-05-04 23:09:00,
2013-05-04 18:15:00,67.9,42.0,29.84,WSW,252,1.0,1.0,39,0.00,,,0.00,244,Wunderground v.1.15,2013-05-04 23:15:00,
2013-05-04 18:28:00,67.7,43.1,29.85,WNW,294,0.0,0.0,41,0.00,,,0.00,185,Wunderground v.1.15,2013-05-04 23:28:00,
2013-05-04 18:33:00,67.6,42.4,29.85,West,262,0.0,3.0,40,0.00,,,0.00,162,Wunderground v.1.15,2013-05-04 23:33:00,
2013-05-04 18:41:00,67.2,43.9,29.85,West,267,1.0,1.0,43,0.00,,,0.00,134,Wunderground v.1.15,2013-05-04 23:41:00,
2013-05-04 18:46:00,67.0,44.9,29.85,West,264,0.0,1.0,45,0.00,,,0.00,113,Wunderground v.1.15,2013-05-04 23:46:00,
2013-05-04 19:04:00,65.8,45.0,29.84,SSW,204,0.0,0.0,47,0.00,,,0.00,35,Wunderground v.1.15,2013-05-05 00:04:00,
2013-05-04 19:10:00,65.1,44.9,29.84,SSW,204,0.0,0.0,48,0.00,,,0.00,28,Wunderground v.1.15,2013-05-05 00:10:00,
2013-05-04 19:54:00,60.2,46.7,29.84,SSW,204,0.0,0.0,61,0.00,,,0.00,0,Wunderground v.1.15,2013-05-05 00:54:00,
2013-05-04 20:10:00,59.6,46.6,29.84,SSW,204,0.0,0.0,62,0.00,,,0.00,0,Wunderground v.1.15,2013-05-05 01:10:00,
2013-05-04 20:19:00,59.6,45.7,29.84,SSW,204,0.0,0.0,60,0.00,,,0.00,0,Wunderground v.1.15,2013-05-05 01:19:00,
2013-05-04 20:25:00,59.6,46.1,29.84,SSW,204,0.0,0.0,61,0.00,,,0.00,0,Wunderground v.1.15,2013-05-05 01:25:00,
2013-05-04 20:30:00,59.6,48.2,29.84,SSW,204,0.0,0.0,66,0.00,,,0.00,0,Wunderground v.1.15,2013-05-05 01:30:00,
2013-05-04 20:35:00,59.4,48.8,29.84,SSW,204,0.0,0.0,68,0.00,,,0.00,0,Wunderground v.1.15,2013-05-05 01:35:00,
2013-05-04 20:41:00,59.2,45.8,29.84,SSW,204,0.0,0.0,61,0.00,,,0.00,0,Wunderground v.1.15,2013-05-05 01:41:00,
2013-05-04 20:46:00,59.1,46.1,29.84,SSW,204,0.0,0.0,62,0.00,,,0.00,0,Wunderground v.1.15,2013-05-05 01:46:00,
2013-05-04 20:52:00,59.1,45.7,29.84,SSW,204,0.0,0.0,61,0.00,,,0.00,0,Wunderground v.1.15,2013-05-05 01:52:00,
2013-05-04 20:57:00,59.3,47.1,29.84,SSW,201,0.0,0.0,64,0.00,,,0.00,0,Wunderground v.1.15,2013-05-05 01:57:00,
2013-05-04 21:02:00,59.2,46.2,29.85,SSW,201,0.0,0.0,62,0.00,,,0.00,0,Wunderground v.1.15,2013-05-05 02:02:00,
2013-05-04 21:08:00,59.3,47.1,29.85,SSW,200,0.0,3.0,64,0.00,,,0.00,0,Wunderground v.1.15,2013-05-05 02:08:00,
2013-05-04 21:13:00,59.2,47.4,29.85,SSW,200,0.0,0.0,65,0.00,,,0.00,0,Wunderground v.1.15,2013-05-05 02:13:00,
2013-05-04 21:18:00,59.1,47.3,29.85,SSW,198,0.0,0.0,65,0.00,,,0.00,0,Wunderground v.1.15,2013-05-05 02:18:00,
2013-05-04 21:24:00,59.2,46.6,29.85,South,188,0.0,0.0,63,0.00,,,0.00,0,Wunderground v.1.15,2013-05-05 02:24:00,
2013-05-04 21:30:00,59.4,45.9,29.85,SSW,206,0.0,0.0,61,0.00,,,0.00,0,Wunderground v.1.15,2013-05-05 02:30:00,
2013-05-04 21:35:00,59.5,46.0,29.86,SSW,199,0.0,0.0,61,0.00,,,0.00,0,Wunderground v.1.15,2013-05-05 02:35:00,
2013-05-04 21:40:00,59.6,46.6,29.86,SSW,199,0.0,0.0,62,0.00,,,0.00,0,Wunderground v.1.15,2013-05-05 02:40:00,
2013-05-04 21:46:00,59.5,46.0,29.86,SSW,200,0.0,5.0,61,0.00,,,0.00,0,Wunderground v.1.15,2013-05-05 02:46:00,
2013-05-04 21:52:00,59.5,46.0,29.86,SSW,194,0.0,0.0,61,0.00,,,0.00,0,Wunderground v.1.15,2013-05-05 02:52:00,
2013-05-04 21:57:00,59.4,46.4,29.86,SSW,196,0.0,0.0,62,0.00,,,0.00,0,Wunderground v.1.15,2013-05-05 02:57:00,
2013-05-04 22:03:00,59.4,46.8,29.86,South,184,1.0,1.0,63,0.00,,,0.00,0,Wunderground v.1.15,2013-05-05 03:03:00,
2013-05-04 22:08:00,59.4,46.8,29.86,SW,230,1.0,2.0,63,0.00,,,0.00,0,Wunderground v.1.15,2013-05-05 03:08:00,
2013-05-04 22:14:00,59.4,47.2,29.86,WSW,238,1.0,1.0,64,0.00,,,0.00,0,Wunderground v.1.15,2013-05-05 03:14:00,
2013-05-04 22:19:00,59.4,47.2,29.87,SW,218,0.0,4.0,64,0.00,,,0.00,0,Wunderground v.1.15,2013-05-05 03:19:00,
2013-05-04 22:24:00,59.4,47.6,29.87,SSW,195,0.0,1.0,65,0.00,,,0.00,0,Wunderground v.1.15,2013-05-05 03:24:00,
2013-05-04 22:29:00,59.4,47.6,29.87,SSW,193,0.0,1.0,65,0.00,,,0.00,0,Wunderground v.1.15,2013-05-05 03:29:00,
2013-05-04 22:34:00,59.3,47.5,29.87,SSW,192,0.0,6.0,65,0.00,,,0.00,0,Wunderground v.1.15,2013-05-05 03:34:00,
2013-05-04 22:39:00,59.4,47.6,29.87,SW,228,0.0,6.0,65,0.00,,,0.00,0,Wunderground v.1.15,2013-05-05 03:39:00,
2013-05-04 22:44:00,59.4,48.0,29.87,SSW,204,0.0,0.0,66,0.00,,,0.00,0,Wunderground v.1.15,2013-05-05 03:44:00,
2013-05-04 22:50:00,59.3,48.3,29.87,SSW,200,0.0,0.0,67,0.00,,,0.00,0,Wunderground v.1.15,2013-05-05 03:50:00,
2013-05-04 22:55:00,59.1,48.1,29.87,SW,219,1.0,8.0,67,0.00,,,0.00,0,Wunderground v.1.15,2013-05-05 03:55:00,
2013-05-04 23:00:00,59.0,48.4,29.87,West,272,1.0,3.0,68,0.00,,,0.00,0,Wunderground v.1.15,2013-05-05 04:00:00,
2013-05-04 23:01:00,59.0,48.4,29.87,WSW,254,1.0,3.0,68,0.00,,,0.00,0,Wunderground v.1.15,2013-05-05 04:01:00,
2013-05-04 23:02:00,59.0,48.4,29.87,WSW,254,1.0,3.0,68,0.00,,,0.00,0,Wunderground v.1.15,2013-05-05 04:02:00,
2013-05-04 23:04:00,59.0,48.4,29.87,WSW,254,1.0,3.0,68,0.00,,,0.00,0,Wunderground v.1.15,2013-05-05 04:04:00,
2013-05-04 23:09:00,59.0,48.8,29.87,WNW,298,0.0,3.0,69,0.00,,,0.00,0,Wunderground v.1.15,2013-05-05 04:09:00,
2013-05-04 23:10:00,59.0,48.8,29.87,WNW,298,0.0,0.0,69,0.00,,,0.00,0,Wunderground v.1.15,2013-05-05 04:10:00,
2013-05-04 23:15:00,58.6,48.8,29.87,WNW,298,0.0,0.0,70,0.00,,,0.00,0,Wunderground v.1.15,2013-05-05 04:15:00,
2013-05-04 23:21:00,58.3,48.6,29.87,WNW,298,0.0,0.0,70,0.00,,,0.00,0,Wunderground v.1.15,2013-05-05 04:21:00,
2013-05-04 23:27:00,58.1,48.7,29.87,WNW,298,0.0,0.0,71,0.00,,,0.00,0,Wunderground v.1.15,2013-05-05 04:27:00,
2013-05-04 23:32:00,57.9,48.9,29.87,WNW,298,0.0,0.0,72,0.00,,,0.00,0,Wunderground v.1.15,2013-05-05 04:32:00,
2013-05-04 23:37:00,57.7,48.4,29.86,WSW,242,0.0,0.0,71,0.00,,,0.00,0,Wunderground v.1.15,2013-05-05 04:37:00,
2013-05-04 23:42:00,57.5,48.9,29.86,WSW,242,0.0,0.0,73,0.00,,,0.00,0,Wunderground v.1.15,2013-05-05 04:42:00,
2013-05-04 23:47:00,57.3,48.7,29.86,WSW,242,0.0,0.0,73,0.00,,,0.00,0,Wunderground v.1.15,2013-05-05 04:47:00,
2013-05-04 23:53:00,57.2,49.0,29.86,WSW,242,0.0,0.0,74,0.00,,,0.00,0,Wunderground v.1.15,2013-05-05 04:53:00,
2013-05-04 23:58:00,57.2,49.0,29.87,WSW,242,0.0,0.0,74,0.00,,,0.00,0,Wunderground v.1.15,2013-05-05 04:58:00,